sensor_id;sensor_type;location;lat;lon;timestamp;temperature;humidity
22145;DHT22;11238;48.730;11.566;2024-03-02T00:00:08;7.30;99.90
22145;DHT22;11238;48.730;11.566;2024-03-02T00:02:46;7.40;99.90
22145;DHT22;11238;48.730;11.566;2024-03-02T00:05:17;7.40;99.90
22145;DHT22;11238;48.730;11.566;2024-03-02T00:07:45;7.40;99.90
22145;DHT22;11238;48.730;11.566;2024-03-02T00:10:14;7.30;99.90
22145;DHT22;11238;48.730;11.566;2024-03-02T00:12:42;7.30;99.90
22145;DHT22;11238;48.730;11.566;2024-03-02T00:17:56;7.20;99.90
22145;DHT22;11238;48.730;11.566;2024-03-02T00:20:22;7.20;99.90
22145;DHT22;11238;48.730;11.566;2024-03-02T00:22:51;7.20;99.90
22145;DHT22;11238;48.730;11.566;2024-03-02T00:25:19;7.20;99.90
22145;DHT22;11238;48.730;11.566;2024-03-02T00:27:48;7.20;99.90
22145;DHT22;11238;48.730;11.566;2024-03-02T00:33:23;7.10;99.90
22145;DHT22;11238;48.730;11.566;2024-03-02T00:35:49;7.10;99.90
22145;DHT22;11238;48.730;11.566;2024-03-02T00:38:15;7.10;99.90
22145;DHT22;11238;48.730;11.566;2024-03-02T00:40:42;7.10;99.90
22145;DHT22;11238;48.730;11.566;2024-03-02T00:45:53;7.10;99.90
22145;DHT22;11238;48.730;11.566;2024-03-02T00:48:19;7.20;99.90
22145;DHT22;11238;48.730;11.566;2024-03-02T00:50:45;7.20;99.90
22145;DHT22;11238;48.730;11.566;2024-03-02T00:53:12;7.20;99.90
22145;DHT22;11238;48.730;11.566;2024-03-02T00:55:38;7.20;99.90
22145;DHT22;11238;48.730;11.566;2024-03-02T00:58:09;7.20;99.90
22145;DHT22;11238;48.730;11.566;2024-03-02T01:00:35;7.20;99.90
22145;DHT22;11238;48.730;11.566;2024-03-02T01:03:02;7.20;99.90
22145;DHT22;11238;48.730;11.566;2024-03-02T01:05:29;7.20;99.90
22145;DHT22;11238;48.730;11.566;2024-03-02T01:07:55;7.20;99.90
22145;DHT22;11238;48.730;11.566;2024-03-02T01:10:21;7.20;99.90
22145;DHT22;11238;48.730;11.566;2024-03-02T01:12:46;7.20;99.90
22145;DHT22;11238;48.730;11.566;2024-03-02T01:15:12;7.20;99.90
22145;DHT22;11238;48.730;11.566;2024-03-02T01:17:38;7.20;99.90
22145;DHT22;11238;48.730;11.566;2024-03-02T01:20:04;7.20;99.90
22145;DHT22;11238;48.730;11.566;2024-03-02T01:22:30;7.20;99.90
22145;DHT22;11238;48.730;11.566;2024-03-02T01:24:55;7.20;99.90
22145;DHT22;11238;48.730;11.566;2024-03-02T01:27:21;7.20;99.90
22145;DHT22;11238;48.730;11.566;2024-03-02T01:29:48;7.30;99.90
22145;DHT22;11238;48.730;11.566;2024-03-02T01:32:14;7.30;99.90
22145;DHT22;11238;48.730;11.566;2024-03-02T01:34:41;7.20;99.90
22145;DHT22;11238;48.730;11.566;2024-03-02T01:37:07;7.20;99.90
22145;DHT22;11238;48.730;11.566;2024-03-02T01:39:33;7.30;99.90
22145;DHT22;11238;48.730;11.566;2024-03-02T01:41:58;7.20;99.90
22145;DHT22;11238;48.730;11.566;2024-03-02T01:44:25;7.20;99.90
22145;DHT22;11238;48.730;11.566;2024-03-02T01:46:51;7.20;99.90
22145;DHT22;11238;48.730;11.566;2024-03-02T01:49:16;7.20;99.90
22145;DHT22;11238;48.730;11.566;2024-03-02T01:51:42;7.20;99.90
22145;DHT22;11238;48.730;11.566;2024-03-02T01:54:08;7.10;99.90
22145;DHT22;11238;48.730;11.566;2024-03-02T01:56:34;7.20;99.90
22145;DHT22;11238;48.730;11.566;2024-03-02T01:59:00;7.10;99.90
22145;DHT22;11238;48.730;11.566;2024-03-02T02:01:25;7.10;99.90
22145;DHT22;11238;48.730;11.566;2024-03-02T02:03:52;7.00;99.90
22145;DHT22;11238;48.730;11.566;2024-03-02T02:06:18;7.00;99.90
22145;DHT22;11238;48.730;11.566;2024-03-02T02:08:44;6.90;99.90
22145;DHT22;11238;48.730;11.566;2024-03-02T02:11:10;6.90;99.90
22145;DHT22;11238;48.730;11.566;2024-03-02T02:13:37;6.80;99.90
22145;DHT22;11238;48.730;11.566;2024-03-02T02:16:07;6.80;99.90
22145;DHT22;11238;48.730;11.566;2024-03-02T02:18:33;6.80;99.90
22145;DHT22;11238;48.730;11.566;2024-03-02T02:20:59;6.80;99.90
22145;DHT22;11238;48.730;11.566;2024-03-02T02:23:25;6.80;99.90
22145;DHT22;11238;48.730;11.566;2024-03-02T02:25:51;6.80;99.90
22145;DHT22;11238;48.730;11.566;2024-03-02T02:28:17;6.80;99.90
22145;DHT22;11238;48.730;11.566;2024-03-02T02:30:43;6.80;99.90
22145;DHT22;11238;48.730;11.566;2024-03-02T02:33:09;6.80;99.90
22145;DHT22;11238;48.730;11.566;2024-03-02T02:35:35;6.80;99.90
22145;DHT22;11238;48.730;11.566;2024-03-02T02:38:01;6.80;99.90
22145;DHT22;11238;48.730;11.566;2024-03-02T02:40:27;6.80;99.90
22145;DHT22;11238;48.730;11.566;2024-03-02T02:42:57;6.90;99.90
22145;DHT22;11238;48.730;11.566;2024-03-02T02:45:24;6.90;99.90
22145;DHT22;11238;48.730;11.566;2024-03-02T02:47:51;6.90;99.90
22145;DHT22;11238;48.730;11.566;2024-03-02T02:50:17;6.90;99.90
22145;DHT22;11238;48.730;11.566;2024-03-02T02:52:43;6.90;99.90
22145;DHT22;11238;48.730;11.566;2024-03-02T02:55:10;6.90;99.90
22145;DHT22;11238;48.730;11.566;2024-03-02T02:57:41;6.90;99.90
22145;DHT22;11238;48.730;11.566;2024-03-02T03:00:14;6.90;99.90
22145;DHT22;11238;48.730;11.566;2024-03-02T03:02:43;6.90;99.90
22145;DHT22;11238;48.730;11.566;2024-03-02T03:05:10;6.90;99.90
22145;DHT22;11238;48.730;11.566;2024-03-02T03:07:37;6.90;99.90
22145;DHT22;11238;48.730;11.566;2024-03-02T03:10:04;6.90;99.90
22145;DHT22;11238;48.730;11.566;2024-03-02T03:12:30;6.90;99.90
22145;DHT22;11238;48.730;11.566;2024-03-02T03:14:59;6.90;99.90
22145;DHT22;11238;48.730;11.566;2024-03-02T03:17:26;6.90;99.90
22145;DHT22;11238;48.730;11.566;2024-03-02T03:19:53;6.90;99.90
22145;DHT22;11238;48.730;11.566;2024-03-02T03:22:19;6.90;99.90
22145;DHT22;11238;48.730;11.566;2024-03-02T03:24:45;6.90;99.90
22145;DHT22;11238;48.730;11.566;2024-03-02T03:27:11;6.90;99.90
22145;DHT22;11238;48.730;11.566;2024-03-02T03:29:37;6.90;99.90
22145;DHT22;11238;48.730;11.566;2024-03-02T03:32:03;6.90;99.90
22145;DHT22;11238;48.730;11.566;2024-03-02T03:34:33;6.90;99.90
22145;DHT22;11238;48.730;11.566;2024-03-02T03:36:59;6.90;99.90
22145;DHT22;11238;48.730;11.566;2024-03-02T03:39:25;6.90;99.90
22145;DHT22;11238;48.730;11.566;2024-03-02T03:41:52;6.90;99.90
22145;DHT22;11238;48.730;11.566;2024-03-02T03:44:20;6.90;99.90
22145;DHT22;11238;48.730;11.566;2024-03-02T03:46:46;7.00;99.90
22145;DHT22;11238;48.730;11.566;2024-03-02T03:49:12;7.00;99.90
22145;DHT22;11238;48.730;11.566;2024-03-02T03:51:38;7.00;99.90
22145;DHT22;11238;48.730;11.566;2024-03-02T03:54:04;6.90;99.90
22145;DHT22;11238;48.730;11.566;2024-03-02T03:56:30;6.90;99.90
22145;DHT22;11238;48.730;11.566;2024-03-02T03:58:55;6.90;99.90
22145;DHT22;11238;48.730;11.566;2024-03-02T04:01:21;6.90;99.90
22145;DHT22;11238;48.730;11.566;2024-03-02T04:03:48;6.80;99.90
22145;DHT22;11238;48.730;11.566;2024-03-02T04:06:14;6.80;99.90
22145;DHT22;11238;48.730;11.566;2024-03-02T04:08:41;6.80;99.90
22145;DHT22;11238;48.730;11.566;2024-03-02T04:11:07;6.80;99.90
22145;DHT22;11238;48.730;11.566;2024-03-02T04:13:33;6.90;99.90
22145;DHT22;11238;48.730;11.566;2024-03-02T04:15:59;6.90;99.90
22145;DHT22;11238;48.730;11.566;2024-03-02T04:18:24;6.90;99.90
22145;DHT22;11238;48.730;11.566;2024-03-02T04:20:50;6.90;99.90
22145;DHT22;11238;48.730;11.566;2024-03-02T04:23:16;6.90;99.90
22145;DHT22;11238;48.730;11.566;2024-03-02T04:25:42;6.90;99.90
22145;DHT22;11238;48.730;11.566;2024-03-02T04:28:08;6.90;99.90
22145;DHT22;11238;48.730;11.566;2024-03-02T04:30:34;6.90;99.90
22145;DHT22;11238;48.730;11.566;2024-03-02T04:32:59;6.80;99.90
22145;DHT22;11238;48.730;11.566;2024-03-02T04:35:26;6.70;99.90
22145;DHT22;11238;48.730;11.566;2024-03-02T04:37:53;6.80;99.90
22145;DHT22;11238;48.730;11.566;2024-03-02T04:40:18;6.70;99.90
22145;DHT22;11238;48.730;11.566;2024-03-02T04:42:44;6.70;99.90
22145;DHT22;11238;48.730;11.566;2024-03-02T04:45:10;6.80;99.90
22145;DHT22;11238;48.730;11.566;2024-03-02T04:47:36;6.80;99.90
22145;DHT22;11238;48.730;11.566;2024-03-02T04:50:02;6.80;99.90
22145;DHT22;11238;48.730;11.566;2024-03-02T04:52:28;6.80;99.90
22145;DHT22;11238;48.730;11.566;2024-03-02T04:54:53;6.80;99.90
22145;DHT22;11238;48.730;11.566;2024-03-02T04:57:38;6.80;99.90
22145;DHT22;11238;48.730;11.566;2024-03-02T05:00:03;6.80;99.90
22145;DHT22;11238;48.730;11.566;2024-03-02T05:02:32;6.80;99.90
22145;DHT22;11238;48.730;11.566;2024-03-02T05:04:58;6.80;99.90
22145;DHT22;11238;48.730;11.566;2024-03-02T05:07:24;6.80;99.90
22145;DHT22;11238;48.730;11.566;2024-03-02T05:09:50;6.70;99.90
22145;DHT22;11238;48.730;11.566;2024-03-02T05:12:16;6.70;99.90
22145;DHT22;11238;48.730;11.566;2024-03-02T05:15:01;6.70;99.90
22145;DHT22;11238;48.730;11.566;2024-03-02T05:17:27;6.70;99.90
22145;DHT22;11238;48.730;11.566;2024-03-02T05:19:53;6.70;99.90
22145;DHT22;11238;48.730;11.566;2024-03-02T05:22:19;6.70;99.90
22145;DHT22;11238;48.730;11.566;2024-03-02T05:24:44;6.60;99.90
22145;DHT22;11238;48.730;11.566;2024-03-02T05:27:10;6.60;99.90
22145;DHT22;11238;48.730;11.566;2024-03-02T05:29:36;6.60;99.90
22145;DHT22;11238;48.730;11.566;2024-03-02T05:32:02;6.60;99.90
22145;DHT22;11238;48.730;11.566;2024-03-02T05:34:28;6.50;99.90
22145;DHT22;11238;48.730;11.566;2024-03-02T05:36:53;6.50;99.90
22145;DHT22;11238;48.730;11.566;2024-03-02T05:39:19;6.40;99.90
22145;DHT22;11238;48.730;11.566;2024-03-02T05:41:45;6.50;99.90
22145;DHT22;11238;48.730;11.566;2024-03-02T05:44:11;6.50;99.90
22145;DHT22;11238;48.730;11.566;2024-03-02T05:46:37;6.40;99.90
22145;DHT22;11238;48.730;11.566;2024-03-02T05:49:03;6.40;99.90
22145;DHT22;11238;48.730;11.566;2024-03-02T05:51:29;6.40;99.90
22145;DHT22;11238;48.730;11.566;2024-03-02T05:53:55;6.30;99.90
22145;DHT22;11238;48.730;11.566;2024-03-02T05:56:21;6.30;99.90
22145;DHT22;11238;48.730;11.566;2024-03-02T05:58:47;6.30;99.90
22145;DHT22;11238;48.730;11.566;2024-03-02T06:01:32;6.30;99.90
22145;DHT22;11238;48.730;11.566;2024-03-02T06:03:57;6.30;99.90
22145;DHT22;11238;48.730;11.566;2024-03-02T06:06:24;6.30;99.90
22145;DHT22;11238;48.730;11.566;2024-03-02T06:08:50;6.30;99.90
22145;DHT22;11238;48.730;11.566;2024-03-02T06:11:16;6.20;99.90
22145;DHT22;11238;48.730;11.566;2024-03-02T06:13:42;6.20;99.90
22145;DHT22;11238;48.730;11.566;2024-03-02T06:16:08;6.30;99.90
22145;DHT22;11238;48.730;11.566;2024-03-02T06:18:34;6.30;99.90
22145;DHT22;11238;48.730;11.566;2024-03-02T06:21:00;6.30;99.90
22145;DHT22;11238;48.730;11.566;2024-03-02T06:23:29;6.30;99.90
22145;DHT22;11238;48.730;11.566;2024-03-02T06:25:54;6.30;99.90
22145;DHT22;11238;48.730;11.566;2024-03-02T06:28:20;6.20;99.90
22145;DHT22;11238;48.730;11.566;2024-03-02T06:30:46;6.20;99.90
22145;DHT22;11238;48.730;11.566;2024-03-02T06:33:12;6.20;99.90
22145;DHT22;11238;48.730;11.566;2024-03-02T06:35:38;6.20;99.90
22145;DHT22;11238;48.730;11.566;2024-03-02T06:38:05;6.20;99.90
22145;DHT22;11238;48.730;11.566;2024-03-02T06:40:31;6.20;99.90
22145;DHT22;11238;48.730;11.566;2024-03-02T06:42:57;6.20;99.90
22145;DHT22;11238;48.730;11.566;2024-03-02T06:45:22;6.20;99.90
22145;DHT22;11238;48.730;11.566;2024-03-02T06:47:48;6.20;99.90
22145;DHT22;11238;48.730;11.566;2024-03-02T06:50:14;6.30;99.90
22145;DHT22;11238;48.730;11.566;2024-03-02T06:52:40;6.30;99.90
22145;DHT22;11238;48.730;11.566;2024-03-02T06:55:06;6.30;99.90
22145;DHT22;11238;48.730;11.566;2024-03-02T06:57:32;6.30;99.90
22145;DHT22;11238;48.730;11.566;2024-03-02T06:59:58;6.20;99.90
22145;DHT22;11238;48.730;11.566;2024-03-02T07:02:27;6.30;99.90
22145;DHT22;11238;48.730;11.566;2024-03-02T07:04:53;6.30;99.90
22145;DHT22;11238;48.730;11.566;2024-03-02T07:07:19;6.30;99.90
22145;DHT22;11238;48.730;11.566;2024-03-02T07:09:46;6.40;99.90
22145;DHT22;11238;48.730;11.566;2024-03-02T07:12:11;6.40;99.90
22145;DHT22;11238;48.730;11.566;2024-03-02T07:14:37;6.40;99.90
22145;DHT22;11238;48.730;11.566;2024-03-02T07:17:57;6.40;99.90
22145;DHT22;11238;48.730;11.566;2024-03-02T07:21:07;6.50;99.90
22145;DHT22;11238;48.730;11.566;2024-03-02T07:23:34;6.60;99.90
22145;DHT22;11238;48.730;11.566;2024-03-02T07:26:00;6.60;99.90
22145;DHT22;11238;48.730;11.566;2024-03-02T07:28:28;6.70;99.90
22145;DHT22;11238;48.730;11.566;2024-03-02T07:31:04;6.70;99.90
22145;DHT22;11238;48.730;11.566;2024-03-02T07:33:30;6.80;99.90
22145;DHT22;11238;48.730;11.566;2024-03-02T07:35:57;6.90;99.90
22145;DHT22;11238;48.730;11.566;2024-03-02T07:38:25;6.90;99.90
22145;DHT22;11238;48.730;11.566;2024-03-02T07:40:51;7.00;99.90
22145;DHT22;11238;48.730;11.566;2024-03-02T07:43:17;7.10;99.90
22145;DHT22;11238;48.730;11.566;2024-03-02T07:45:44;7.10;99.90
22145;DHT22;11238;48.730;11.566;2024-03-02T07:48:11;7.10;99.90
22145;DHT22;11238;48.730;11.566;2024-03-02T07:50:36;7.20;99.90
22145;DHT22;11238;48.730;11.566;2024-03-02T07:53:04;7.30;99.90
22145;DHT22;11238;48.730;11.566;2024-03-02T07:55:31;7.30;99.90
22145;DHT22;11238;48.730;11.566;2024-03-02T07:57:57;7.30;99.90
22145;DHT22;11238;48.730;11.566;2024-03-02T08:00:23;7.20;99.90
22145;DHT22;11238;48.730;11.566;2024-03-02T08:02:52;7.30;99.90
22145;DHT22;11238;48.730;11.566;2024-03-02T08:05:18;7.30;99.90
22145;DHT22;11238;48.730;11.566;2024-03-02T08:07:45;7.20;99.90
22145;DHT22;11238;48.730;11.566;2024-03-02T08:30:50;7.60;99.90
22145;DHT22;11238;48.730;11.566;2024-03-02T08:36:01;7.70;99.90
22145;DHT22;11238;48.730;11.566;2024-03-02T08:38:27;7.60;99.90
22145;DHT22;11238;48.730;11.566;2024-03-02T08:40:53;7.80;99.90
22145;DHT22;11238;48.730;11.566;2024-03-02T08:43:19;7.80;99.90
22145;DHT22;11238;48.730;11.566;2024-03-02T08:45:45;7.80;99.90
22145;DHT22;11238;48.730;11.566;2024-03-02T08:48:13;7.90;99.90
22145;DHT22;11238;48.730;11.566;2024-03-02T08:50:39;8.00;99.90
22145;DHT22;11238;48.730;11.566;2024-03-02T08:53:05;8.10;99.90
22145;DHT22;11238;48.730;11.566;2024-03-02T08:55:31;8.10;99.90
22145;DHT22;11238;48.730;11.566;2024-03-02T08:57:57;8.20;99.90
22145;DHT22;11238;48.730;11.566;2024-03-02T09:00:24;8.40;99.90
22145;DHT22;11238;48.730;11.566;2024-03-02T09:02:50;8.50;99.90
22145;DHT22;11238;48.730;11.566;2024-03-02T09:05:17;8.60;99.90
22145;DHT22;11238;48.730;11.566;2024-03-02T09:07:42;8.80;99.90
22145;DHT22;11238;48.730;11.566;2024-03-02T09:10:11;8.90;99.90
22145;DHT22;11238;48.730;11.566;2024-03-02T09:12:38;9.10;99.90
22145;DHT22;11238;48.730;11.566;2024-03-02T09:15:05;9.00;99.90
22145;DHT22;11238;48.730;11.566;2024-03-02T09:17:31;9.10;99.90
22145;DHT22;11238;48.730;11.566;2024-03-02T09:19:57;9.20;99.90
22145;DHT22;11238;48.730;11.566;2024-03-02T09:22:23;9.30;99.90
22145;DHT22;11238;48.730;11.566;2024-03-02T09:24:49;9.20;99.90
22145;DHT22;11238;48.730;11.566;2024-03-02T09:27:15;9.30;99.90
22145;DHT22;11238;48.730;11.566;2024-03-02T09:29:42;9.50;99.90
22145;DHT22;11238;48.730;11.566;2024-03-02T09:32:11;9.70;99.90
22145;DHT22;11238;48.730;11.566;2024-03-02T09:34:37;9.90;99.90
22145;DHT22;11238;48.730;11.566;2024-03-02T09:37:03;9.90;99.90
22145;DHT22;11238;48.730;11.566;2024-03-02T09:39:30;10.00;99.90
22145;DHT22;11238;48.730;11.566;2024-03-02T09:41:56;10.10;99.90
22145;DHT22;11238;48.730;11.566;2024-03-02T09:44:22;10.20;99.90
22145;DHT22;11238;48.730;11.566;2024-03-02T09:46:50;10.20;99.90
22145;DHT22;11238;48.730;11.566;2024-03-02T09:49:17;10.20;99.90
22145;DHT22;11238;48.730;11.566;2024-03-02T09:51:48;10.10;99.90
22145;DHT22;11238;48.730;11.566;2024-03-02T09:54:17;10.10;99.90
22145;DHT22;11238;48.730;11.566;2024-03-02T09:56:44;10.10;99.90
22145;DHT22;11238;48.730;11.566;2024-03-02T09:59:13;10.10;99.90
22145;DHT22;11238;48.730;11.566;2024-03-02T10:01:58;10.10;99.90
22145;DHT22;11238;48.730;11.566;2024-03-02T10:04:28;10.20;99.90
22145;DHT22;11238;48.730;11.566;2024-03-02T10:09:39;10.40;99.90
22145;DHT22;11238;48.730;11.566;2024-03-02T10:12:06;10.50;99.90
22145;DHT22;11238;48.730;11.566;2024-03-02T10:14:33;10.50;99.90
22145;DHT22;11238;48.730;11.566;2024-03-02T10:17:06;10.60;99.90
22145;DHT22;11238;48.730;11.566;2024-03-02T10:19:33;10.70;99.90
22145;DHT22;11238;48.730;11.566;2024-03-02T10:22:01;10.70;99.90
22145;DHT22;11238;48.730;11.566;2024-03-02T10:24:38;10.80;99.90
22145;DHT22;11238;48.730;11.566;2024-03-02T10:27:15;10.90;99.90
22145;DHT22;11238;48.730;11.566;2024-03-02T10:29:41;11.10;99.90
22145;DHT22;11238;48.730;11.566;2024-03-02T10:32:11;11.20;99.90
22145;DHT22;11238;48.730;11.566;2024-03-02T10:34:41;11.30;99.90
22145;DHT22;11238;48.730;11.566;2024-03-02T10:37:07;11.30;99.90
22145;DHT22;11238;48.730;11.566;2024-03-02T10:39:34;11.50;99.90
22145;DHT22;11238;48.730;11.566;2024-03-02T10:42:07;11.50;99.90
22145;DHT22;11238;48.730;11.566;2024-03-02T10:44:33;11.50;99.90
22145;DHT22;11238;48.730;11.566;2024-03-02T10:47:01;11.60;99.90
22145;DHT22;11238;48.730;11.566;2024-03-02T10:49:33;11.60;99.90
22145;DHT22;11238;48.730;11.566;2024-03-02T10:51:59;11.60;99.90
22145;DHT22;11238;48.730;11.566;2024-03-02T10:54:25;11.70;99.90
22145;DHT22;11238;48.730;11.566;2024-03-02T10:56:59;11.70;99.90
22145;DHT22;11238;48.730;11.566;2024-03-02T10:59:34;11.50;99.90
22145;DHT22;11238;48.730;11.566;2024-03-02T11:02:01;11.40;99.90
22145;DHT22;11238;48.730;11.566;2024-03-02T11:04:29;11.00;99.90
22145;DHT22;11238;48.730;11.566;2024-03-02T11:07:09;11.10;99.90
22145;DHT22;11238;48.730;11.566;2024-03-02T11:09:40;11.40;99.90
22145;DHT22;11238;48.730;11.566;2024-03-02T11:12:22;11.60;99.90
22145;DHT22;11238;48.730;11.566;2024-03-02T11:14:52;11.90;99.90
22145;DHT22;11238;48.730;11.566;2024-03-02T11:17:18;11.70;99.90
22145;DHT22;11238;48.730;11.566;2024-03-02T11:19:46;11.60;99.90
22145;DHT22;11238;48.730;11.566;2024-03-02T11:22:13;11.90;99.90
22145;DHT22;11238;48.730;11.566;2024-03-02T11:24:39;12.10;99.90
22145;DHT22;11238;48.730;11.566;2024-03-02T11:27:06;12.20;99.90
22145;DHT22;11238;48.730;11.566;2024-03-02T11:32:03;12.50;99.90
22145;DHT22;11238;48.730;11.566;2024-03-02T11:34:36;12.50;99.90
22145;DHT22;11238;48.730;11.566;2024-03-02T11:37:05;12.60;99.90
22145;DHT22;11238;48.730;11.566;2024-03-02T11:39:31;12.70;99.90
22145;DHT22;11238;48.730;11.566;2024-03-02T11:42:21;12.90;99.90
22145;DHT22;11238;48.730;11.566;2024-03-02T11:44:50;13.00;99.90
22145;DHT22;11238;48.730;11.566;2024-03-02T11:47:17;12.80;99.90
22145;DHT22;11238;48.730;11.566;2024-03-02T11:49:49;12.90;99.90
22145;DHT22;11238;48.730;11.566;2024-03-02T11:52:17;13.00;99.90
22145;DHT22;11238;48.730;11.566;2024-03-02T11:54:47;13.20;99.90
22145;DHT22;11238;48.730;11.566;2024-03-02T11:57:15;13.40;99.90
22145;DHT22;11238;48.730;11.566;2024-03-02T11:59:42;13.40;99.90
22145;DHT22;11238;48.730;11.566;2024-03-02T12:02:15;13.40;99.90
22145;DHT22;11238;48.730;11.566;2024-03-02T12:04:42;13.40;99.90
22145;DHT22;11238;48.730;11.566;2024-03-02T12:07:09;13.50;99.90
22145;DHT22;11238;48.730;11.566;2024-03-02T12:09:35;13.70;99.90
22145;DHT22;11238;48.730;11.566;2024-03-02T12:12:20;13.90;99.90
22145;DHT22;11238;48.730;11.566;2024-03-02T12:14:52;13.40;99.90
22145;DHT22;11238;48.730;11.566;2024-03-02T12:17:19;13.50;99.90
22145;DHT22;11238;48.730;11.566;2024-03-02T12:19:45;13.60;99.90
22145;DHT22;11238;48.730;11.566;2024-03-02T12:22:11;13.70;99.90
22145;DHT22;11238;48.730;11.566;2024-03-02T12:24:37;13.70;99.90
22145;DHT22;11238;48.730;11.566;2024-03-02T12:27:04;13.80;99.90
22145;DHT22;11238;48.730;11.566;2024-03-02T12:29:48;13.90;99.90
22145;DHT22;11238;48.730;11.566;2024-03-02T12:32:23;14.20;99.90
22145;DHT22;11238;48.730;11.566;2024-03-02T12:34:53;14.20;99.90
22145;DHT22;11238;48.730;11.566;2024-03-02T12:37:19;14.40;99.90
22145;DHT22;11238;48.730;11.566;2024-03-02T12:39:45;14.60;99.90
22145;DHT22;11238;48.730;11.566;2024-03-02T12:42:12;14.80;99.90
22145;DHT22;11238;48.730;11.566;2024-03-02T12:48:25;14.90;99.90
22145;DHT22;11238;48.730;11.566;2024-03-02T12:53:37;14.90;99.90
22145;DHT22;11238;48.730;11.566;2024-03-02T12:56:04;15.00;99.90
22145;DHT22;11238;48.730;11.566;2024-03-02T12:58:29;15.10;99.90
22145;DHT22;11238;48.730;11.566;2024-03-02T13:01:07;14.80;99.70
22145;DHT22;11238;48.730;11.566;2024-03-02T13:03:41;14.50;99.90
22145;DHT22;11238;48.730;11.566;2024-03-02T13:06:26;14.90;99.90
22145;DHT22;11238;48.730;11.566;2024-03-02T13:08:55;15.10;99.90
22145;DHT22;11238;48.730;11.566;2024-03-02T13:11:22;15.10;99.80
22145;DHT22;11238;48.730;11.566;2024-03-02T13:13:49;15.10;99.90
22145;DHT22;11238;48.730;11.566;2024-03-02T13:16:18;14.40;99.90
22145;DHT22;11238;48.730;11.566;2024-03-02T13:18:45;14.30;99.90
22145;DHT22;11238;48.730;11.566;2024-03-02T13:21:11;14.40;99.90
22145;DHT22;11238;48.730;11.566;2024-03-02T13:23:40;14.70;99.90
22145;DHT22;11238;48.730;11.566;2024-03-02T13:26:05;15.00;99.90
22145;DHT22;11238;48.730;11.566;2024-03-02T13:28:43;15.10;99.90
22145;DHT22;11238;48.730;11.566;2024-03-02T13:31:17;15.20;98.80
22145;DHT22;11238;48.730;11.566;2024-03-02T13:33:42;15.30;98.10
22145;DHT22;11238;48.730;11.566;2024-03-02T13:36:08;14.90;99.60
22145;DHT22;11238;48.730;11.566;2024-03-02T13:38:34;15.10;98.50
22145;DHT22;11238;48.730;11.566;2024-03-02T13:41:00;15.30;98.00
22145;DHT22;11238;48.730;11.566;2024-03-02T13:43:27;15.20;98.60
22145;DHT22;11238;48.730;11.566;2024-03-02T13:45:53;15.30;97.80
22145;DHT22;11238;48.730;11.566;2024-03-02T13:48:19;15.40;96.10
22145;DHT22;11238;48.730;11.566;2024-03-02T13:50:49;15.30;96.70
22145;DHT22;11238;48.730;11.566;2024-03-02T13:53:14;15.50;97.40
22145;DHT22;11238;48.730;11.566;2024-03-02T13:55:40;15.30;96.50
22145;DHT22;11238;48.730;11.566;2024-03-02T13:58:08;15.50;97.20
22145;DHT22;11238;48.730;11.566;2024-03-02T14:00:34;15.60;97.20
22145;DHT22;11238;48.730;11.566;2024-03-02T14:03:00;15.60;96.90
22145;DHT22;11238;48.730;11.566;2024-03-02T14:05:26;15.60;96.20
22145;DHT22;11238;48.730;11.566;2024-03-02T14:07:52;15.60;96.90
22145;DHT22;11238;48.730;11.566;2024-03-02T14:10:18;15.60;96.90
22145;DHT22;11238;48.730;11.566;2024-03-02T14:12:48;15.90;96.30
22145;DHT22;11238;48.730;11.566;2024-03-02T14:15:14;16.00;96.00
22145;DHT22;11238;48.730;11.566;2024-03-02T14:17:39;16.20;96.90
22145;DHT22;11238;48.730;11.566;2024-03-02T14:20:06;16.20;95.80
22145;DHT22;11238;48.730;11.566;2024-03-02T14:22:32;16.20;95.70
22145;DHT22;11238;48.730;11.566;2024-03-02T14:24:59;16.20;95.00
22145;DHT22;11238;48.730;11.566;2024-03-02T14:27:25;16.00;95.70
22145;DHT22;11238;48.730;11.566;2024-03-02T14:29:51;15.90;95.90
22145;DHT22;11238;48.730;11.566;2024-03-02T14:32:17;16.00;96.60
22145;DHT22;11238;48.730;11.566;2024-03-02T14:34:43;15.90;95.20
22145;DHT22;11238;48.730;11.566;2024-03-02T14:37:10;15.90;95.40
22145;DHT22;11238;48.730;11.566;2024-03-02T14:39:36;15.90;96.40
22145;DHT22;11238;48.730;11.566;2024-03-02T14:42:02;15.90;96.60
22145;DHT22;11238;48.730;11.566;2024-03-02T14:44:31;15.90;96.40
22145;DHT22;11238;48.730;11.566;2024-03-02T14:46:57;16.00;96.00
22145;DHT22;11238;48.730;11.566;2024-03-02T14:49:25;15.90;95.70
22145;DHT22;11238;48.730;11.566;2024-03-02T14:51:51;16.00;96.00
22145;DHT22;11238;48.730;11.566;2024-03-02T14:54:16;16.00;96.00
22145;DHT22;11238;48.730;11.566;2024-03-02T14:56:43;15.80;95.60
22145;DHT22;11238;48.730;11.566;2024-03-02T14:59:09;15.70;95.10
22145;DHT22;11238;48.730;11.566;2024-03-02T15:01:36;15.60;95.20
22145;DHT22;11238;48.730;11.566;2024-03-02T15:04:02;15.60;95.90
22145;DHT22;11238;48.730;11.566;2024-03-02T15:06:28;15.50;96.40
22145;DHT22;11238;48.730;11.566;2024-03-02T15:08:54;15.40;95.50
22145;DHT22;11238;48.730;11.566;2024-03-02T15:11:23;15.30;95.70
22145;DHT22;11238;48.730;11.566;2024-03-02T15:13:50;15.20;95.60
22145;DHT22;11238;48.730;11.566;2024-03-02T15:16:16;15.20;95.70
22145;DHT22;11238;48.730;11.566;2024-03-02T15:18:42;15.10;96.10
22145;DHT22;11238;48.730;11.566;2024-03-02T15:21:08;14.90;96.10
22145;DHT22;11238;48.730;11.566;2024-03-02T15:23:34;14.70;95.70
22145;DHT22;11238;48.730;11.566;2024-03-02T15:25:59;14.40;95.90
22145;DHT22;11238;48.730;11.566;2024-03-02T15:28:25;14.30;96.30
22145;DHT22;11238;48.730;11.566;2024-03-02T15:30:51;14.20;96.60
22145;DHT22;11238;48.730;11.566;2024-03-02T15:33:17;13.90;98.20
22145;DHT22;11238;48.730;11.566;2024-03-02T15:35:43;13.90;99.00
22145;DHT22;11238;48.730;11.566;2024-03-02T15:38:09;13.70;99.20
22145;DHT22;11238;48.730;11.566;2024-03-02T15:40:37;13.60;98.90
22145;DHT22;11238;48.730;11.566;2024-03-02T15:43:12;13.40;99.50
22145;DHT22;11238;48.730;11.566;2024-03-02T15:45:38;13.30;99.50
22145;DHT22;11238;48.730;11.566;2024-03-02T15:48:04;13.20;99.60
22145;DHT22;11238;48.730;11.566;2024-03-02T15:50:30;13.10;99.60
22145;DHT22;11238;48.730;11.566;2024-03-02T15:52:58;12.90;99.90
22145;DHT22;11238;48.730;11.566;2024-03-02T15:55:28;12.90;99.90
22145;DHT22;11238;48.730;11.566;2024-03-02T15:57:54;12.80;99.90
22145;DHT22;11238;48.730;11.566;2024-03-02T16:00:20;12.70;99.90
22145;DHT22;11238;48.730;11.566;2024-03-02T16:02:47;12.60;99.90
22145;DHT22;11238;48.730;11.566;2024-03-02T16:05:13;12.50;99.90
22145;DHT22;11238;48.730;11.566;2024-03-02T16:07:44;12.40;99.90
22145;DHT22;11238;48.730;11.566;2024-03-02T16:10:10;12.30;99.90